createdAt,value
2023-01-29T00:00:39.470Z,6.19
2023-01-29T00:05:41.111Z,6.32
2023-01-29T00:10:42.643Z,6.40
2023-01-29T00:15:54.004Z,6.36
2023-01-29T00:20:55.892Z,6.40
2023-01-29T00:26:00.135Z,6.44
2023-01-29T00:31:13.223Z,6.38
2023-01-29T00:36:16.751Z,6.05
2023-01-29T00:41:18.203Z,6.02
2023-01-29T00:46:19.707Z,5.99
2023-01-29T00:51:21.188Z,6.06
2023-01-29T00:56:22.620Z,5.87
2023-01-29T01:01:24.357Z,5.96
2023-01-29T01:06:27.458Z,6.02
2023-01-29T01:11:28.928Z,6.08
2023-01-29T01:16:30.546Z,6.09
2023-01-29T01:21:32.718Z,5.97
2023-01-29T01:26:34.218Z,5.98
2023-01-29T01:31:35.789Z,5.98
2023-01-29T01:36:37.323Z,6.00
2023-01-29T01:41:38.821Z,6.07
2023-01-29T01:46:40.282Z,6.09
2023-01-29T01:51:52.449Z,6.12
2023-01-29T01:56:59.879Z,6.07
2023-01-29T02:02:01.442Z,6.03
2023-01-29T02:07:06.659Z,6.13
2023-01-29T02:12:12.440Z,6.15
2023-01-29T02:17:19.237Z,6.18
2023-01-29T02:22:35.928Z,6.21
2023-01-29T02:27:49.329Z,6.16
2023-01-29T02:33:05.926Z,6.18
2023-01-29T02:38:27.045Z,6.12
2023-01-29T02:43:40.415Z,6.07
2023-01-29T02:48:52.714Z,5.99
2023-01-29T02:54:19.872Z,6.10
2023-01-29T02:59:39.952Z,6.18
2023-01-29T03:04:50.789Z,6.16
2023-01-29T03:09:54.394Z,6.09
2023-01-29T03:14:58.933Z,6.03
2023-01-29T03:20:03.384Z,6.01
2023-01-29T03:25:06.330Z,5.96
2023-01-29T03:30:12.626Z,6.15
2023-01-29T03:35:34.374Z,6.04
2023-01-29T03:40:46.296Z,5.96
2023-01-29T03:46:09.682Z,5.89
2023-01-29T03:51:20.364Z,5.85
2023-01-29T03:56:37.899Z,5.80
2023-01-29T04:01:49.733Z,5.70
2023-01-29T04:06:52.981Z,5.74
2023-01-29T04:12:02.272Z,5.65
2023-01-29T04:17:13.433Z,5.58
2023-01-29T04:22:38.530Z,5.55
2023-01-29T04:28:02.586Z,5.58
2023-01-29T04:33:22.795Z,5.35
2023-01-29T04:38:34.916Z,5.23
2023-01-29T04:43:59.097Z,5.03
2023-01-29T04:49:09.357Z,4.97
2023-01-29T04:54:19.801Z,4.99
2023-01-29T04:59:32.273Z,5.09
2023-01-29T05:04:35.630Z,5.20
2023-01-29T05:09:39.068Z,5.06
2023-01-29T05:14:44.140Z,5.11
2023-01-29T05:19:46.759Z,5.19
2023-01-29T05:24:49.547Z,5.15
2023-01-29T05:29:51.133Z,5.22
2023-01-29T05:34:52.709Z,5.22
2023-01-29T05:39:54.207Z,5.16
2023-01-29T05:44:55.677Z,5.16
2023-01-29T05:49:57.209Z,5.04
2023-01-29T05:54:58.757Z,5.08
2023-01-29T06:00:00.456Z,4.97
2023-01-29T06:05:01.946Z,4.95
2023-01-29T06:10:03.952Z,4.90
2023-01-29T06:15:05.973Z,5.02
2023-01-29T06:20:08.330Z,5.04
2023-01-29T06:25:10.170Z,5.03
2023-01-29T06:30:12.248Z,5.01
2023-01-29T06:35:13.813Z,5.00
2023-01-29T06:40:15.726Z,4.94
2023-01-29T06:45:17.418Z,4.99
2023-01-29T06:50:19.174Z,5.03
2023-01-29T06:55:20.836Z,4.99
2023-01-29T07:00:22.530Z,4.93
2023-01-29T07:05:24.018Z,5.03
2023-01-29T07:10:25.522Z,5.01
2023-01-29T07:15:27.324Z,5.10
2023-01-29T07:20:30.205Z,5.16
2023-01-29T07:25:33.062Z,5.27
2023-01-29T07:30:34.874Z,5.20
2023-01-29T07:35:40.872Z,5.18
2023-01-29T07:40:42.404Z,5.18
2023-01-29T07:45:43.943Z,5.10
2023-01-29T07:50:45.440Z,5.15
2023-01-29T07:55:46.911Z,5.10
2023-01-29T08:00:48.416Z,5.24
2023-01-29T08:05:49.931Z,5.12
2023-01-29T08:10:51.453Z,5.18
2023-01-29T08:15:52.913Z,5.32
2023-01-29T08:20:59.550Z,5.41
2023-01-29T08:26:03.041Z,5.36
2023-01-29T08:31:05.237Z,5.56
2023-01-29T08:36:07.835Z,5.65
2023-01-29T08:41:10.080Z,5.96
2023-01-29T08:46:11.605Z,6.04
2023-01-29T08:51:13.092Z,6.16
2023-01-29T08:56:14.589Z,6.28
2023-01-29T09:01:16.154Z,6.50
2023-01-29T09:06:17.728Z,6.64
2023-01-29T09:11:19.273Z,7.01
2023-01-29T09:16:20.750Z,7.28
2023-01-29T09:21:22.381Z,7.35
2023-01-29T09:26:23.894Z,7.47
2023-01-29T09:31:25.539Z,7.51
2023-01-29T09:36:27.129Z,7.43
2023-01-29T09:41:47.217Z,7.39
2023-01-29T09:46:52.699Z,7.50
2023-01-29T09:52:02.010Z,7.44
2023-01-29T09:57:03.656Z,7.43
2023-01-29T10:02:38.766Z,7.63
2023-01-29T10:08:03.574Z,7.70
2023-01-29T10:13:27.883Z,7.41
2023-01-29T10:18:49.130Z,7.42
2023-01-29T10:23:57.999Z,7.33
2023-01-29T10:29:02.877Z,7.47
2023-01-29T10:34:13.684Z,7.51
2023-01-29T10:39:20.410Z,7.45
2023-01-29T10:44:33.872Z,7.45
2023-01-29T10:49:35.311Z,7.33
2023-01-29T10:55:00.801Z,7.27
2023-01-29T11:00:13.256Z,7.32
2023-01-29T11:05:37.503Z,7.47
2023-01-29T11:11:03.695Z,7.17
2023-01-29T11:16:06.068Z,7.37
2023-01-29T11:21:07.919Z,7.45
2023-01-29T11:26:13.703Z,7.36
2023-01-29T11:31:36.620Z,7.40
2023-01-29T11:36:39.651Z,7.54
2023-01-29T11:42:02.126Z,7.60
2023-01-29T11:47:17.685Z,7.46
2023-01-29T11:52:21.976Z,7.34
2023-01-29T11:57:23.379Z,7.31
2023-01-29T12:02:30.693Z,7.37
2023-01-29T12:07:33.698Z,7.35
2023-01-29T12:12:39.349Z,7.22
2023-01-29T12:17:44.655Z,7.27
2023-01-29T12:23:01.950Z,7.31
2023-01-29T12:28:19.239Z,7.29
2023-01-29T12:33:42.293Z,7.39
2023-01-29T12:38:45.144Z,7.45
2023-01-29T12:43:52.098Z,7.60
2023-01-29T12:48:57.671Z,7.35
2023-01-29T12:54:05.071Z,7.41
2023-01-29T12:59:24.614Z,7.30
2023-01-29T13:04:40.219Z,7.25
2023-01-29T13:09:46.041Z,7.14
2023-01-29T13:15:22.209Z,7.32
2023-01-29T13:20:31.943Z,7.33
2023-01-29T13:25:33.454Z,7.37
2023-01-29T13:30:37.032Z,7.24
2023-01-29T13:35:42.009Z,7.24
2023-01-29T13:40:49.321Z,7.21
2023-01-29T13:45:53.514Z,7.25
2023-01-29T13:50:59.776Z,7.27
2023-01-29T13:56:28.907Z,7.30
2023-01-29T14:01:45.517Z,7.38
2023-01-29T14:06:50.055Z,7.48
2023-01-29T14:11:52.478Z,7.53
2023-01-29T14:17:02.120Z,7.56
2023-01-29T14:22:05.231Z,7.53
2023-01-29T14:27:22.664Z,7.65
2023-01-29T14:32:25.513Z,7.49
2023-01-29T14:37:40.286Z,7.52
2023-01-29T14:43:08.207Z,7.51
2023-01-29T14:48:09.635Z,7.50
2023-01-29T14:53:13.552Z,7.55
2023-01-29T14:58:39.867Z,7.43
2023-01-29T15:03:47.685Z,7.42
2023-01-29T15:08:56.888Z,7.43
2023-01-29T15:14:16.196Z,7.13
2023-01-29T15:19:28.507Z,7.23
2023-01-29T15:24:29.994Z,7.19
2023-01-29T15:29:31.684Z,7.10
2023-01-29T15:34:33.893Z,7.14
2023-01-29T15:39:43.899Z,7.27
2023-01-29T15:44:45.738Z,7.17
2023-01-29T15:49:47.241Z,7.16
2023-01-29T15:54:49.396Z,7.17
2023-01-29T15:59:53.277Z,7.08
2023-01-29T16:04:55.874Z,7.03
2023-01-29T16:09:59.056Z,6.99
2023-01-29T16:15:03.911Z,6.97
2023-01-29T16:20:08.044Z,6.98
2023-01-29T16:25:14.592Z,6.95
2023-01-29T16:30:17.508Z,6.94
2023-01-29T16:35:19.583Z,6.87
2023-01-29T16:40:34.134Z,6.84
2023-01-29T16:45:35.710Z,6.87
2023-01-29T16:50:53.875Z,6.69
2023-01-29T16:56:06.932Z,6.54
2023-01-29T17:01:10.843Z,6.49
2023-01-29T17:06:19.626Z,6.53
2023-01-29T17:11:30.009Z,6.46
2023-01-29T17:16:33.803Z,6.41
2023-01-29T17:21:35.266Z,6.42
2023-01-29T17:26:36.920Z,6.41
2023-01-29T17:31:38.567Z,6.34
2023-01-29T17:36:41.611Z,6.32
2023-01-29T17:41:47.407Z,6.33
2023-01-29T17:46:49.299Z,6.42
2023-01-29T17:51:52.237Z,6.36
2023-01-29T17:56:54.534Z,6.25
2023-01-29T18:01:56.088Z,6.28
2023-01-29T18:06:57.678Z,6.37
2023-01-29T18:11:59.132Z,6.28
2023-01-29T18:17:00.595Z,6.21
2023-01-29T18:22:02.124Z,6.27
2023-01-29T18:27:03.747Z,6.26
2023-01-29T18:32:05.522Z,6.24
2023-01-29T18:37:06.976Z,6.15
2023-01-29T18:42:08.515Z,6.28
2023-01-29T18:47:10.024Z,6.25
2023-01-29T18:52:11.528Z,6.31
2023-01-29T18:58:25.129Z,6.02
2023-01-29T19:02:34.955Z,6.26
2023-01-29T19:07:36.502Z,6.26
2023-01-29T19:12:39.258Z,6.14
2023-01-29T19:17:40.768Z,6.16
2023-01-29T19:22:42.381Z,6.29
2023-01-29T19:27:43.920Z,6.24
2023-01-29T19:32:45.455Z,6.23
2023-01-29T19:37:47.039Z,6.03
2023-01-29T19:42:48.548Z,6.06
2023-01-29T19:47:50.066Z,6.06
2023-01-29T19:52:52.006Z,5.99
2023-01-29T19:57:54.947Z,5.90
2023-01-29T20:02:56.407Z,5.71
2023-01-29T20:07:57.843Z,5.70
2023-01-29T20:12:59.282Z,5.43
2023-01-29T20:18:00.800Z,5.47
2023-01-29T20:23:02.332Z,5.51
2023-01-29T20:28:05.445Z,5.48
2023-01-29T20:33:07.418Z,5.48
2023-01-29T20:38:08.874Z,5.42
2023-01-29T20:43:10.375Z,5.33
2023-01-29T20:48:11.967Z,4.96
2023-01-29T20:53:13.432Z,5.00
2023-01-29T20:58:14.976Z,4.77
2023-01-29T21:03:16.622Z,4.81
2023-01-29T21:08:18.200Z,5.09
2023-01-29T21:13:19.687Z,5.14
2023-01-29T21:18:21.246Z,4.98
2023-01-29T21:23:22.790Z,4.93
2023-01-29T21:28:24.239Z,4.90
2023-01-29T21:33:25.702Z,4.62
2023-01-29T21:38:27.250Z,4.82
2023-01-29T21:43:29.028Z,4.79
2023-01-29T21:48:30.624Z,4.80
2023-01-29T21:53:32.090Z,4.73
2023-01-29T21:58:33.729Z,4.63
2023-01-29T22:03:35.258Z,4.45
2023-01-29T22:08:36.770Z,4.28
2023-01-29T22:13:38.465Z,4.30
2023-01-29T22:18:39.965Z,4.14
2023-01-29T22:23:41.426Z,4.21
2023-01-29T22:28:43.362Z,4.27
2023-01-29T22:33:44.803Z,4.24
2023-01-29T22:38:46.649Z,4.09
2023-01-29T22:43:48.188Z,4.14
2023-01-29T22:48:49.635Z,4.03
2023-01-29T22:53:56.066Z,4.10
2023-01-29T22:58:59.989Z,3.93
2023-01-29T23:04:01.552Z,4.03
2023-01-29T23:09:03.027Z,4.10
2023-01-29T23:14:04.494Z,4.05
2023-01-29T23:19:05.969Z,3.84
2023-01-29T23:24:08.085Z,3.79
2023-01-29T23:29:10.170Z,3.75
2023-01-29T23:34:11.642Z,3.71
2023-01-29T23:39:13.301Z,3.61
2023-01-29T23:44:15.970Z,3.53
2023-01-29T23:49:17.526Z,3.35
2023-01-29T23:54:19.120Z,3.31
2023-01-29T23:59:20.774Z,3.16
